Time;durP1;ratioP1;P1;durP2;ratioP2;P2;SDS_P1;SDS_P2;PMS_P1;PMS_P2;Temp;Humidity;BMP_temperature;BMP_pressure;BME280_temperature;BME280_humidity;BME280_pressure;Samples;Min_cycle;Max_cycle;Signal;HPM_P1;HPM_P2
2022/06/30 00:00:16;;;;;;;6.30;3.55;;;23.30;99.90;;;;;;5052710;28;20102;-77
2022/06/30 00:02:41;;;;;;;7.75;3.38;;;23.20;99.90;;;;;;5036331;28;20084;-77
2022/06/30 00:05:07;;;;;;;4.13;3.13;;;23.20;99.90;;;;;;5052949;28;20072;-78
2022/06/30 00:07:33;;;;;;;6.25;2.85;;;23.20;99.90;;;;;;5052918;28;20045;-77
2022/06/30 00:09:59;;;;;;;4.60;3.53;;;23.10;99.90;;;;;;5053057;28;20044;-77
2022/06/30 00:12:25;;;;;;;3.83;3.20;;;23.20;99.90;;;;;;5052497;28;20106;-78
2022/06/30 00:14:51;;;;;;;5.05;3.40;;;23.10;99.90;;;;;;5052765;28;20040;-78
2022/06/30 00:17:17;;;;;;;4.07;3.20;;;23.10;99.90;;;;;;5036036;28;20048;-78
2022/06/30 00:19:45;;;;;;;4.60;2.92;;;23.00;99.90;;;;;;5052732;28;20044;-77
2022/06/30 00:22:11;;;;;;;5.10;3.33;;;23.00;99.90;;;;;;5053019;28;20056;-77
2022/06/30 00:24:37;;;;;;;3.83;3.40;;;23.00;99.90;;;;;;5069423;28;20081;-77
2022/06/30 00:27:05;;;;;;;4.22;3.80;;;22.90;99.90;;;;;;5052557;28;20060;-77
2022/06/30 00:29:31;;;;;;;6.65;3.90;;;23.00;99.90;;;;;;5052629;28;20389;-77
2022/06/30 00:31:56;;;;;;;4.60;4.00;;;22.90;99.90;;;;;;5052552;28;20041;-77
2022/06/30 00:34:23;;;;;;;5.65;4.50;;;22.90;99.90;;;;;;5053592;28;20519;-77
2022/06/30 00:36:50;;;;;;;5.90;4.43;;;22.80;99.90;;;;;;5052330;28;20056;-78
2022/06/30 00:39:15;;;;;;;5.68;4.30;;;22.70;99.90;;;;;;5035938;28;20083;-77
2022/06/30 00:41:42;;;;;;;9.40;5.00;;;22.60;99.90;;;;;;5053099;28;20049;-78
2022/06/30 00:44:10;;;;;;;5.57;4.65;;;22.50;99.90;;;;;;5052520;28;20118;-79
2022/06/30 00:46:36;;;;;;;5.93;4.80;;;22.40;99.90;;;;;;5052440;28;20465;-77
2022/06/30 00:49:02;;;;;;;7.07;4.63;;;22.40;99.90;;;;;;5055427;28;20065;-77
2022/06/30 00:51:27;;;;;;;8.15;4.45;;;22.50;99.90;;;;;;5056540;28;20541;-77
2022/06/30 00:53:55;;;;;;;5.32;4.43;;;22.40;99.90;;;;;;5057469;28;20051;-77
2022/06/30 00:56:26;;;;;;;5.95;4.28;;;22.30;99.90;;;;;;5056452;28;20052;-77
2022/06/30 00:58:55;;;;;;;4.93;4.00;;;22.40;99.90;;;;;;5056151;28;20041;-77
2022/06/30 01:01:23;;;;;;;5.55;4.15;;;22.30;99.90;;;;;;5056390;28;20041;-77
2022/06/30 01:03:50;;;;;;;5.75;4.60;;;22.20;99.90;;;;;;5056305;28;20056;-77
2022/06/30 01:06:17;;;;;;;6.45;4.35;;;22.20;99.90;;;;;;5056218;28;20103;-77
2022/06/30 01:08:43;;;;;;;7.05;4.50;;;22.20;99.90;;;;;;5055926;28;20052;-78
2022/06/30 01:13:53;;;;;;;5.45;4.30;;;22.10;99.90;;;;;;5055929;28;20129;-77
2022/06/30 01:16:22;;;;;;;4.82;4.20;;;22.00;99.90;;;;;;5056063;28;20049;-77
2022/06/30 01:18:48;;;;;;;4.90;4.40;;;21.90;99.90;;;;;;5055664;28;20388;-77
2022/06/30 01:21:16;;;;;;;5.97;4.50;;;22.10;99.90;;;;;;5055923;28;20053;-78
2022/06/30 01:23:42;;;;;;;5.60;4.43;;;21.90;99.90;;;;;;5055960;28;20099;-77
2022/06/30 01:26:07;;;;;;;6.75;4.28;;;22.00;99.90;;;;;;5056829;28;20045;-77
2022/06/30 01:28:33;;;;;;;7.32;4.38;;;21.90;99.90;;;;;;5055552;28;20052;-77
2022/06/30 01:30:59;;;;;;;5.53;3.75;;;22.00;99.90;;;;;;5039085;28;20041;-77
2022/06/30 01:33:25;;;;;;;5.78;3.65;;;21.90;99.90;;;;;;5055303;28;20041;-77
2022/06/30 01:35:50;;;;;;;7.57;3.78;;;21.90;99.90;;;;;;5055122;28;20099;-78
2022/06/30 01:38:17;;;;;;;5.00;3.50;;;21.90;99.90;;;;;;5038438;28;20053;-77
2022/06/30 01:40:43;;;;;;;5.32;3.75;;;21.90;99.90;;;;;;5055627;28;20052;-77
2022/06/30 01:43:11;;;;;;;6.03;3.83;;;21.90;99.90;;;;;;5055229;28;20045;-77
2022/06/30 01:45:37;;;;;;;5.82;3.30;;;21.90;99.90;;;;;;5055222;28;20049;-77
2022/06/30 01:48:03;;;;;;;4.30;3.47;;;21.90;99.90;;;;;;5055519;28;20550;-77
2022/06/30 01:50:30;;;;;;;6.97;3.30;;;22.00;99.90;;;;;;5055279;28;20053;-77
2022/06/30 01:52:57;;;;;;;4.30;3.13;;;21.90;99.90;;;;;;5039072;28;20056;-78
2022/06/30 01:55:23;;;;;;;5.57;3.42;;;21.80;99.90;;;;;;5055416;28;20041;-77
2022/06/30 01:57:49;;;;;;;5.13;3.78;;;21.80;99.90;;;;;;5055252;28;20441;-77
2022/06/30 02:00:19;;;;;;;5.63;4.03;;;21.90;99.90;;;;;;5055261;28;20048;-77
2022/06/30 02:02:45;;;;;;;5.45;3.83;;;21.80;99.90;;;;;;5055127;28;20053;-77
2022/06/30 02:05:12;;;;;;;6.43;3.70;;;21.80;99.90;;;;;;5054783;28;20107;-77
2022/06/30 02:07:39;;;;;;;6.70;3.90;;;21.80;99.90;;;;;;5055104;28;20040;-77
2022/06/30 02:10:07;;;;;;;4.63;3.47;;;21.80;99.90;;;;;;5055106;28;20057;-77
2022/06/30 02:12:45;;;;;;;5.65;3.47;;;21.90;99.90;;;;;;5054689;28;20081;-77
2022/06/30 02:15:17;;;;;;;5.43;3.58;;;21.90;99.90;;;;;;5054955;28;20531;-77
2022/06/30 02:17:43;;;;;;;5.25;3.45;;;21.70;99.90;;;;;;5054832;28;20084;-78
2022/06/30 02:20:10;;;;;;;6.15;3.33;;;21.80;99.90;;;;;;5054895;28;20140;-77
2022/06/30 02:22:38;;;;;;;3.40;3.10;;;21.90;99.90;;;;;;5038194;28;20048;-77
2022/06/30 02:25:06;;;;;;;4.80;3.38;;;22.00;99.90;;;;;;5054883;28;20057;-77
2022/06/30 02:27:31;;;;;;;4.82;3.47;;;21.90;99.90;;;;;;5054769;28;20045;-77
2022/06/30 02:29:57;;;;;;;4.88;3.60;;;21.90;99.90;;;;;;5054705;28;20545;-77
2022/06/30 02:32:23;;;;;;;3.72;3.35;;;21.90;99.90;;;;;;5071069;28;20049;-77
2022/06/30 02:34:50;;;;;;;4.60;3.22;;;21.90;99.90;;;;;;5055634;28;20136;-77
2022/06/30 02:37:16;;;;;;;4.35;3.45;;;21.80;99.90;;;;;;5053957;28;20049;-78
2022/06/30 02:39:41;;;;;;;6.05;3.90;;;21.70;99.90;;;;;;5054609;28;20502;-77
2022/06/30 02:42:07;;;;;;;9.75;4.18;;;21.60;99.90;;;;;;5054231;28;20049;-77
2022/06/30 02:44:33;;;;;;;5.85;3.85;;;21.50;99.90;;;;;;5071102;28;20053;-77
2022/06/30 02:46:59;;;;;;;6.10;4.20;;;21.50;99.90;;;;;;5037777;28;20041;-77
2022/06/30 02:49:25;;;;;;;5.57;3.90;;;21.50;99.90;;;;;;5054376;28;20041;-77
2022/06/30 02:51:50;;;;;;;6.93;4.07;;;21.40;99.90;;;;;;5054087;28;20044;-77
2022/06/30 02:54:16;;;;;;;8.55;4.30;;;21.50;99.90;;;;;;5054340;28;20049;-77
2022/06/30 02:56:42;;;;;;;4.55;3.65;;;21.40;99.90;;;;;;5054178;28;20091;-77
2022/06/30 02:59:08;;;;;;;7.50;5.00;;;21.40;99.90;;;;;;5053860;28;20048;-77
2022/06/30 03:01:34;;;;;;;4.65;3.83;;;21.40;99.90;;;;;;5053729;28;20486;-77
2022/06/30 03:04:02;;;;;;;6.18;3.78;;;21.30;99.90;;;;;;5054340;28;20385;-77
2022/06/30 03:06:31;;;;;;;4.30;3.30;;;21.20;99.90;;;;;;5037429;28;20087;-77
2022/06/30 03:08:58;;;;;;;4.32;3.92;;;21.10;99.90;;;;;;5053950;28;20075;-77
2022/06/30 03:11:24;;;;;;;4.60;3.65;;;21.10;99.90;;;;;;5054776;28;20058;-77
2022/06/30 03:13:50;;;;;;;5.55;4.05;;;21.10;99.90;;;;;;5053249;28;20055;-77
2022/06/30 03:16:17;;;;;;;7.63;4.78;;;21.00;99.90;;;;;;5054487;28;20476;-78
2022/06/30 03:18:43;;;;;;;5.05;3.90;;;21.10;99.90;;;;;;5053548;28;20484;-77
2022/06/30 03:21:09;;;;;;;7.55;4.32;;;21.00;99.90;;;;;;5053919;28;20045;-78
2022/06/30 03:23:35;;;;;;;8.00;4.68;;;21.00;99.90;;;;;;5037512;28;20049;-77
2022/06/30 03:26:02;;;;;;;6.05;4.55;;;21.00;99.90;;;;;;5053607;28;20102;-77
2022/06/30 03:28:28;;;;;;;7.43;4.00;;;20.80;99.90;;;;;;5053629;28;20131;-77
2022/06/30 03:30:54;;;;;;;4.40;3.80;;;20.90;99.90;;;;;;5053505;28;20068;-77
2022/06/30 03:33:20;;;;;;;5.00;3.80;;;20.90;99.90;;;;;;5053509;28;20049;-77
2022/06/30 03:35:46;;;;;;;8.40;4.75;;;20.90;99.90;;;;;;5053476;28;20067;-78
2022/06/30 03:38:13;;;;;;;7.43;4.63;;;20.90;99.90;;;;;;5070009;28;20049;-77
2022/06/30 03:40:39;;;;;;;5.03;3.80;;;20.90;99.90;;;;;;5053112;28;20055;-77
2022/06/30 03:43:06;;;;;;;5.47;4.00;;;20.90;99.90;;;;;;5052587;28;20056;-77
2022/06/30 03:45:33;;;;;;;5.65;4.15;;;20.90;99.90;;;;;;5053050;28;20399;-77
2022/06/30 03:48:04;;;;;;;6.47;4.43;;;20.90;99.90;;;;;;5053173;28;20503;-77
2022/06/30 03:50:30;;;;;;;7.50;4.28;;;20.80;99.90;;;;;;5054260;28;20048;-77
2022/06/30 03:52:57;;;;;;;6.30;4.85;;;20.70;99.90;;;;;;5054279;28;20040;-77
2022/06/30 03:55:23;;;;;;;7.57;5.13;;;20.80;99.90;;;;;;5053189;28;20045;-78
2022/06/30 03:57:49;;;;;;;5.70;4.00;;;20.80;99.90;;;;;;5052973;28;20056;-77
2022/06/30 04:00:16;;;;;;;8.40;4.20;;;20.70;99.90;;;;;;5053138;28;20045;-78
2022/06/30 04:02:41;;;;;;;8.63;4.85;;;20.80;99.90;;;;;;5053982;28;20049;-77
2022/06/30 04:05:07;;;;;;;7.50;5.28;;;20.80;99.90;;;;;;5052911;28;20133;-77
2022/06/30 04:07:39;;;;;;;7.30;5.72;;;20.80;99.90;;;;;;5052677;28;20605;-77
2022/06/30 04:10:06;;;;;;;6.85;4.75;;;20.90;99.90;;;;;;5052984;28;20510;-77
2022/06/30 04:12:32;;;;;;;8.05;5.22;;;20.90;99.90;;;;;;5035823;28;20053;-77
2022/06/30 04:14:57;;;;;;;8.27;5.15;;;20.90;99.90;;;;;;5052753;28;20051;-77
2022/06/30 04:17:23;;;;;;;9.57;5.07;;;20.90;99.90;;;;;;5052698;28;20044;-77
2022/06/30 04:19:48;;;;;;;9.68;5.60;;;20.80;99.90;;;;;;5052778;28;20045;-77
2022/06/30 04:22:14;;;;;;;8.00;5.97;;;20.70;99.90;;;;;;5052494;28;20048;-77
2022/06/30 04:24:40;;;;;;;7.72;5.50;;;20.70;99.90;;;;;;5035880;28;20045;-77
2022/06/30 04:27:06;;;;;;;9.20;6.15;;;20.70;99.90;;;;;;5052584;28;20049;-77
2022/06/30 04:29:31;;;;;;;9.90;6.03;;;20.80;99.90;;;;;;5053579;28;20049;-77
2022/06/30 04:34:41;;;;;;;9.93;6.00;;;20.90;99.90;;;;;;5052896;28;20602;-77
2022/06/30 04:37:07;;;;;;;14.68;6.43;;;21.00;99.90;;;;;;5052295;28;20135;-77
2022/06/30 04:39:32;;;;;;;7.00;5.30;;;20.90;99.90;;;;;;5035865;28;20064;-76
2022/06/30 04:41:58;;;;;;;7.68;5.65;;;20.80;99.90;;;;;;5052917;28;20046;-77
2022/06/30 04:44:24;;;;;;;8.50;5.32;;;20.80;99.90;;;;;;5068932;28;20148;-76
2022/06/30 04:46:49;;;;;;;9.82;5.18;;;20.80;99.90;;;;;;5052551;28;20045;-77
2022/06/30 04:49:15;;;;;;;8.15;5.65;;;20.90;99.90;;;;;;5052434;28;20083;-77
2022/06/30 04:51:41;;;;;;;7.50;5.05;;;20.80;99.90;;;;;;5052384;28;20081;-77
2022/06/30 04:54:06;;;;;;;6.45;5.38;;;20.80;99.90;;;;;;5052302;28;20071;-77
2022/06/30 04:56:32;;;;;;;7.40;5.35;;;20.90;99.90;;;;;;5035823;28;20132;-76
2022/06/30 04:58:58;;;;;;;7.32;6.10;;;21.00;99.90;;;;;;5052072;28;20539;-76
2022/06/30 05:01:24;;;;;;;9.70;5.70;;;21.20;99.90;;;;;;5052392;28;20053;-76
2022/06/30 05:03:49;;;;;;;6.53;5.32;;;21.20;99.90;;;;;;5052352;28;20550;-76
2022/06/30 05:06:15;;;;;;;7.00;5.10;;;21.20;99.90;;;;;;5035686;28;20547;-77
2022/06/30 05:08:41;;;;;;;7.30;5.45;;;21.30;99.90;;;;;;5052286;28;20044;-77
2022/06/30 05:11:06;;;;;;;6.93;4.95;;;21.50;99.90;;;;;;5052269;28;20050;-76
2022/06/30 05:13:32;;;;;;;6.97;5.43;;;21.50;99.90;;;;;;5052237;28;20040;-77
2022/06/30 05:15:58;;;;;;;6.82;5.55;;;21.50;99.90;;;;;;5051954;28;20064;-77
2022/06/30 05:18:26;;;;;;;5.85;4.60;;;21.50;99.90;;;;;;5053084;28;20048;-77
2022/06/30 05:20:52;;;;;;;8.75;5.55;;;21.40;99.90;;;;;;5051949;28;20045;-77
2022/06/30 05:23:18;;;;;;;5.28;4.40;;;21.50;99.90;;;;;;5052089;28;20053;-77
2022/06/30 05:28:28;;;;;;;6.65;4.28;;;21.60;99.90;;;;;;5052044;28;20477;-77
2022/06/30 05:30:56;;;;;;;7.25;4.90;;;21.60;99.90;;;;;;5052084;28;20056;-77
2022/06/30 05:33:22;;;;;;;6.63;4.88;;;21.80;99.90;;;;;;5053039;28;20128;-77
2022/06/30 05:35:50;;;;;;;6.35;4.75;;;21.70;99.90;;;;;;5053905;28;20087;-77
2022/06/30 05:38:17;;;;;;;7.57;5.60;;;21.60;99.90;;;;;;5055371;28;20088;-76
2022/06/30 05:40:45;;;;;;;8.07;5.18;;;21.60;99.90;;;;;;5056395;28;20135;-76
2022/06/30 05:43:16;;;;;;;7.00;4.68;;;21.60;99.90;;;;;;5055365;28;20044;-76
2022/06/30 05:45:41;;;;;;;6.35;4.65;;;21.50;99.90;;;;;;5055704;28;20049;-77
2022/06/30 05:48:07;;;;;;;5.93;4.95;;;21.70;99.90;;;;;;5055215;28;20053;-76
2022/06/30 05:50:33;;;;;;;6.85;4.78;;;21.80;99.90;;;;;;5055470;28;20155;-77
2022/06/30 05:52:59;;;;;;;6.35;4.68;;;21.80;99.90;;;;;;5056382;28;20045;-77
2022/06/30 05:55:25;;;;;;;10.32;4.90;;;21.70;99.90;;;;;;5055590;28;20033;-77
2022/06/30 05:57:53;;;;;;;8.02;4.75;;;21.70;99.90;;;;;;5055110;28;20384;-76
2022/06/30 06:00:22;;;;;;;9.68;4.55;;;21.70;99.90;;;;;;5054996;28;20572;-77
2022/06/30 06:02:48;;;;;;;6.55;4.65;;;21.70;99.90;;;;;;5054889;28;20064;-77
2022/06/30 06:05:14;;;;;;;6.70;5.03;;;21.80;99.90;;;;;;5055158;28;20438;-76
2022/06/30 06:07:39;;;;;;;7.57;5.10;;;21.80;99.90;;;;;;5055289;28;20045;-76
2022/06/30 06:10:06;;;;;;;6.63;4.15;;;21.90;99.90;;;;;;5055107;28;20056;-77
2022/06/30 06:12:31;;;;;;;5.43;4.45;;;22.00;99.90;;;;;;5054716;28;20540;-77
2022/06/30 06:14:57;;;;;;;7.82;4.65;;;22.00;99.90;;;;;;5054944;28;20132;-77
2022/06/30 06:17:23;;;;;;;7.40;4.80;;;22.00;99.90;;;;;;5054684;28;20459;-77
2022/06/30 06:19:49;;;;;;;7.57;4.43;;;22.10;99.90;;;;;;5055822;28;20056;-77
2022/06/30 06:22:14;;;;;;;7.15;4.78;;;22.30;99.90;;;;;;5055253;28;20060;-76
2022/06/30 06:24:40;;;;;;;7.25;4.50;;;22.30;99.90;;;;;;5054827;28;20045;-76
2022/06/30 06:27:06;;;;;;;7.00;4.47;;;22.40;99.90;;;;;;5054820;28;20400;-76
2022/06/30 06:29:32;;;;;;;7.88;4.05;;;22.50;99.90;;;;;;5071381;28;20477;-77
2022/06/30 06:31:57;;;;;;;7.90;4.82;;;22.60;99.90;;;;;;5071298;28;20045;-78
2022/06/30 06:34:23;;;;;;;5.53;4.63;;;22.80;99.90;;;;;;5054700;28;20057;-77
2022/06/30 06:36:49;;;;;;;8.60;4.63;;;22.80;99.90;;;;;;5054657;28;20404;-77
2022/06/30 06:39:14;;;;;;;7.45;4.63;;;22.80;99.90;;;;;;5038221;28;20049;-76
2022/06/30 06:41:40;;;;;;;6.05;4.47;;;22.90;99.90;;;;;;5054547;28;20056;-75
2022/06/30 06:44:06;;;;;;;6.25;4.75;;;22.90;99.90;;;;;;5054227;28;20053;-77
2022/06/30 06:46:32;;;;;;;5.22;4.30;;;22.80;99.90;;;;;;5054904;28;20047;-76
2022/06/30 06:49:09;;;;;;;5.53;4.18;;;22.90;99.90;;;;;;5054259;28;20373;-75
2022/06/30 06:51:35;;;;;;;6.70;5.25;;;22.90;99.90;;;;;;5054225;28;20052;-75
2022/06/30 06:54:01;;;;;;;8.13;5.03;;;22.90;99.90;;;;;;5053910;28;20055;-74
2022/06/30 06:56:27;;;;;;;6.03;4.50;;;22.90;99.90;;;;;;5054161;28;20051;-74
2022/06/30 06:58:53;;;;;;;7.68;4.60;;;23.00;99.90;;;;;;5053788;28;20045;-75
2022/06/30 07:01:19;;;;;;;6.70;4.38;;;23.00;99.90;;;;;;5054022;28;20380;-74
2022/06/30 07:03:45;;;;;;;6.47;4.18;;;23.10;99.90;;;;;;5054027;28;20049;-74
2022/06/30 07:06:11;;;;;;;6.20;4.50;;;23.30;99.90;;;;;;5054000;28;20045;-73
2022/06/30 07:08:37;;;;;;;6.63;4.68;;;23.30;99.90;;;;;;5053757;28;20115;-73
2022/06/30 07:11:04;;;;;;;8.20;4.80;;;23.30;99.90;;;;;;5053752;28;20368;-73
2022/06/30 07:13:35;;;;;;;10.88;5.82;;;23.30;99.90;;;;;;5053360;28;20049;-74
2022/06/30 07:16:01;;;;;;;4.90;4.32;;;23.30;99.90;;;;;;5053861;28;20060;-75
2022/06/30 07:18:27;;;;;;;5.35;4.15;;;23.10;99.90;;;;;;5053856;28;20045;-75
2022/06/30 07:20:53;;;;;;;8.50;5.22;;;23.50;99.90;;;;;;5052855;28;20067;-77
2022/06/30 07:23:19;;;;;;;8.02;5.15;;;23.70;99.90;;;;;;5035740;28;20037;-77
2022/06/30 07:25:55;;;;;;;7.00;5.35;;;23.70;99.90;;;;;;5069864;28;20060;-76
2022/06/30 07:28:21;;;;;;;7.75;4.90;;;23.80;99.90;;;;;;5053619;28;20476;-76
2022/06/30 07:30:46;;;;;;;6.60;5.20;;;23.80;99.90;;;;;;5053551;28;20059;-76
2022/06/30 07:33:12;;;;;;;7.00;5.32;;;23.60;99.90;;;;;;5053508;28;20047;-77
2022/06/30 07:35:38;;;;;;;7.88;6.15;;;23.60;99.90;;;;;;5037061;28;20045;-76
2022/06/30 07:38:03;;;;;;;6.47;5.20;;;23.80;99.90;;;;;;5054122;28;20060;-76
2022/06/30 07:40:29;;;;;;;7.30;5.70;;;23.90;99.90;;;;;;5053456;28;20053;-77
2022/06/30 07:42:55;;;;;;;5.97;5.15;;;23.90;99.90;;;;;;5053003;28;20053;-76
2022/06/30 07:45:21;;;;;;;6.80;5.13;;;23.80;99.90;;;;;;5053366;28;20056;-76
2022/06/30 07:47:48;;;;;;;7.50;5.60;;;23.80;99.90;;;;;;5053917;28;20135;-77
2022/06/30 07:50:16;;;;;;;8.10;5.43;;;24.00;99.90;;;;;;5043742;28;20087;-76
2022/06/30 07:52:42;;;;;;;5.75;4.90;;;24.20;99.90;;;;;;5052841;28;20484;-76
2022/06/30 07:55:08;;;;;;;11.05;5.97;;;24.30;99.90;;;;;;5052589;28;20036;-77
2022/06/30 07:57:39;;;;;;;9.85;5.47;;;24.50;99.90;;;;;;5035347;28;20098;-77
2022/06/30 08:00:06;;;;;;;10.82;5.95;;;24.60;99.90;;;;;;5052248;28;20045;-77
2022/06/30 08:02:32;;;;;;;10.15;5.45;;;24.90;99.90;;;;;;5052732;28;20094;-77
2022/06/30 08:04:58;;;;;;;6.75;4.93;;;24.90;99.90;;;;;;5052747;28;20080;-78
2022/06/30 08:07:23;;;;;;;9.95;5.93;;;25.00;99.90;;;;;;5052834;28;20048;-77
2022/06/30 08:09:49;;;;;;;7.60;5.47;;;25.20;99.90;;;;;;5035940;28;20053;-77
2022/06/30 08:12:15;;;;;;;8.98;5.50;;;25.20;99.90;;;;;;5052137;28;20068;-78
2022/06/30 08:14:40;;;;;;;7.90;6.35;;;25.50;99.90;;;;;;5052570;28;20045;-77
2022/06/30 08:17:06;;;;;;;7.45;5.57;;;25.50;99.90;;;;;;5053788;28;20131;-78
2022/06/30 08:19:33;;;;;;;6.45;5.55;;;25.60;99.90;;;;;;5052772;28;20041;-78
2022/06/30 08:21:59;;;;;;;7.10;5.85;;;25.40;99.90;;;;;;5052829;28;20052;-77
2022/06/30 08:24:24;;;;;;;6.60;5.57;;;25.40;99.90;;;;;;5052876;28;20056;-77
2022/06/30 08:26:50;;;;;;;8.40;5.60;;;25.70;99.90;;;;;;5052340;28;20053;-77
2022/06/30 08:29:16;;;;;;;9.10;6.22;;;25.80;99.90;;;;;;5052690;28;20048;-76
2022/06/30 08:31:42;;;;;;;8.05;5.97;;;26.00;99.90;;;;;;5052599;28;20045;-78
2022/06/30 08:34:07;;;;;;;6.82;5.60;;;26.10;99.90;;;;;;5052975;28;20041;-78
2022/06/30 08:36:33;;;;;;;7.15;6.20;;;26.10;99.90;;;;;;5035998;28;20049;-78
2022/06/30 08:38:59;;;;;;;10.82;6.63;;;26.30;99.90;;;;;;5069086;28;20049;-78
2022/06/30 08:44:12;;;;;;;8.13;6.68;;;26.50;99.90;;;;;;5052371;28;20056;-77
2022/06/30 08:46:38;;;;;;;10.90;6.50;;;26.40;99.90;;;;;;5052466;28;20052;-78
2022/06/30 08:49:04;;;;;;;9.82;5.90;;;26.60;99.90;;;;;;5052420;28;20056;-79
2022/06/30 08:51:34;;;;;;;8.98;6.35;;;26.90;99.90;;;;;;5052175;28;20055;-85
2022/06/30 08:54:01;;;;;;;9.10;6.75;;;26.90;99.90;;;;;;5052366;28;20048;-83
2022/06/30 08:56:31;;;;;;;8.20;6.78;;;26.50;99.90;;;;;;5052867;28;20124;-84
2022/06/30 08:58:58;;;;;;;8.98;6.90;;;26.00;99.90;;;;;;5053323;28;20084;-80
2022/06/30 09:01:26;;;;;;;10.85;7.30;;;25.90;99.90;;;;;;5052376;28;20049;-78
2022/06/30 09:03:52;;;;;;;8.55;6.38;;;26.00;99.90;;;;;;5052571;28;20052;-79
2022/06/30 09:06:18;;;;;;;8.50;6.45;;;26.30;99.90;;;;;;5052279;28;20080;-81
2022/06/30 09:08:44;;;;;;;8.35;6.68;;;26.70;99.90;;;;;;5053931;28;20095;-79
2022/06/30 09:11:10;;;;;;;8.98;7.32;;;27.00;99.90;;;;;;5056171;28;20175;-79
2022/06/30 09:13:44;;;;;;;6.93;6.22;;;27.10;99.90;;;;;;5055877;28;20049;-79
2022/06/30 09:16:10;;;;;;;7.25;6.35;;;27.20;99.90;;;;;;5056137;28;20056;-79
2022/06/30 09:18:36;;;;;;;7.68;6.60;;;27.40;99.90;;;;;;5055915;28;20045;-79
2022/06/30 09:21:17;;;;;;;7.82;7.03;;;27.40;99.90;;;;;;5055766;28;20055;-79
2022/06/30 09:23:44;;;;;;;8.15;7.32;;;27.40;99.90;;;;;;5056053;28;20048;-79
2022/06/30 09:26:18;;;;;;;8.25;7.38;;;27.60;99.90;;;;;;5055915;28;20190;-79
2022/06/30 09:28:45;;;;;;;9.75;7.97;;;27.70;99.90;;;;;;5056315;28;20482;-78
2022/06/30 09:31:29;;;;;;;8.75;6.95;;;27.90;99.90;;;;;;5055587;28;20052;-79
2022/06/30 09:33:54;;;;;;;9.43;6.82;;;28.10;99.90;;;;;;5055831;28;20118;-79
2022/06/30 09:36:21;;;;;;;7.78;6.25;;;28.30;99.90;;;;;;5055765;28;20073;-79
2022/06/30 09:39:10;;;;;;;7.45;6.10;;;28.50;99.90;;;;;;5055310;28;20060;-78
2022/06/30 09:41:40;;;;;;;9.52;7.57;;;28.70;99.90;;;;;;5055854;28;20045;-78
2022/06/30 09:44:24;;;;;;;8.50;6.90;;;28.60;99.90;;;;;;5055282;28;20041;-79
2022/06/30 09:47:04;;;;;;;8.23;7.40;;;28.60;99.90;;;;;;5056097;28;20065;-78
2022/06/30 09:49:32;;;;;;;12.55;6.45;;;28.60;99.90;;;;;;5055505;28;20098;-78
2022/06/30 09:52:00;;;;;;;11.02;8.02;;;28.80;99.90;;;;;;5038774;28;20045;-79
2022/06/30 09:54:26;;;;;;;8.73;6.70;;;29.00;99.90;;;;;;5055391;28;20060;-78
2022/06/30 09:57:06;;;;;;;7.75;6.90;;;28.90;99.90;;;;;;5055363;28;20049;-79
2022/06/30 09:59:35;;;;;;;10.65;8.02;;;28.90;99.90;;;;;;5055429;28;20051;-79
2022/06/30 10:02:06;;;;;;;8.70;7.60;;;29.00;99.90;;;;;;5055524;28;20045;-78
2022/06/30 10:04:50;;;;;;;8.75;6.75;;;29.00;99.90;;;;;;5055322;28;20053;-76
2022/06/30 10:07:16;;;;;;;10.00;8.15;;;29.30;99.90;;;;;;5055227;28;20072;-76
2022/06/30 10:09:42;;;;;;;9.02;8.13;;;29.40;99.90;;;;;;5054741;28;20083;-84
2022/06/30 10:12:08;;;;;;;7.97;6.93;;;29.60;99.90;;;;;;5056414;28;20044;-80
2022/06/30 10:14:35;;;;;;;8.68;6.85;;;29.80;99.90;;;;;;5056183;28;20092;-80
2022/06/30 10:17:04;;;;;;;8.07;6.82;;;30.00;99.90;;;;;;5055663;28;20075;-79
2022/06/30 10:19:30;;;;;;;9.02;7.13;;;29.80;99.90;;;;;;5054851;28;20506;-80
2022/06/30 10:21:56;;;;;;;7.78;7.00;;;29.90;99.90;;;;;;5054027;28;20128;-80
2022/06/30 10:24:23;;;;;;;12.27;8.38;;;30.20;99.90;;;;;;5054550;28;20051;-79
2022/06/30 10:29:34;;;;;;;9.98;8.02;;;29.90;99.90;;;;;;5054924;28;20057;-79
2022/06/30 10:32:06;;;;;;;9.40;8.30;;;29.70;99.90;;;;;;5054677;28;20457;-81
2022/06/30 10:34:44;;;;;;;10.00;8.70;;;29.60;99.90;;;;;;5038149;28;20060;-78
2022/06/30 10:37:24;;;;;;;10.68;8.93;;;29.60;99.90;;;;;;5054468;28;20118;-78
2022/06/30 10:40:00;;;;;;;12.48;7.90;;;29.60;99.90;;;;;;5054518;28;20056;-78
2022/06/30 10:42:44;;;;;;;9.93;7.93;;;29.60;99.90;;;;;;5053972;28;20041;-76
2022/06/30 10:45:31;;;;;;;9.80;8.15;;;29.60;99.90;;;;;;5054452;28;20102;-81
2022/06/30 10:48:05;;;;;;;10.43;8.23;;;29.60;99.90;;;;;;5037867;28;20049;-78
2022/06/30 10:50:39;;;;;;;8.52;7.68;;;29.30;99.90;;;;;;5054513;28;20063;-77
2022/06/30 10:53:08;;;;;;;9.45;8.18;;;29.30;99.90;;;;;;5054497;28;20133;-77
2022/06/30 10:55:49;;;;;;;10.48;9.25;;;29.30;99.90;;;;;;5054317;28;20057;-78
2022/06/30 10:58:16;;;;;;;11.75;9.00;;;29.20;99.90;;;;;;5054359;28;20041;-78
2022/06/30 11:00:56;;;;;;;9.07;8.18;;;29.30;99.90;;;;;;5054505;28;20049;-78
2022/06/30 11:03:32;;;;;;;10.60;8.07;;;29.00;99.90;;;;;;5054156;28;20071;-78
2022/06/30 11:06:01;;;;;;;8.55;7.70;;;28.90;99.90;;;;;;5054036;28;20388;-78
2022/06/30 11:08:39;;;;;;;10.10;8.68;;;29.10;99.90;;;;;;5054174;28;20072;-77
2022/06/30 11:11:22;;;;;;;8.63;7.25;;;29.20;99.90;;;;;;5054967;28;20057;-77
2022/06/30 11:13:50;;;;;;;9.40;8.05;;;29.80;99.90;;;;;;5053314;28;20484;-77
2022/06/30 11:16:17;;;;;;;9.13;7.05;;;30.40;99.90;;;;;;5053888;28;20496;-77
2022/06/30 11:18:43;;;;;;;7.88;7.00;;;30.80;99.90;;;;;;5053568;28;20472;-77
2022/06/30 11:21:09;;;;;;;7.88;6.82;;;30.80;99.90;;;;;;5053762;28;20060;-77
2022/06/30 11:23:44;;;;;;;8.02;7.15;;;30.50;99.90;;;;;;5053933;28;20045;-77
2022/06/30 11:28:57;;;;;;;8.10;7.28;;;30.10;99.90;;;;;;5053547;28;20049;-79
2022/06/30 11:31:25;;;;;;;7.72;6.63;;;29.90;99.90;;;;;;5053570;28;20077;-78
2022/06/30 11:33:57;;;;;;;8.85;7.38;;;29.90;99.90;;;;;;5053631;28;20045;-78
2022/06/30 11:36:23;;;;;;;10.20;7.32;;;29.80;99.90;;;;;;5053443;28;20068;-78
2022/06/30 11:38:58;;;;;;;8.50;7.00;;;29.70;99.90;;;;;;5052758;28;20052;-78
2022/06/30 11:44:13;;;;;;;10.77;8.35;;;29.30;99.90;;;;;;5053124;28;20061;-79
2022/06/30 11:46:59;;;;;;;9.90;7.93;;;28.80;99.90;;;;;;5056634;28;20049;-82
2022/06/30 11:49:37;;;;;;;9.15;6.72;;;28.70;99.90;;;;;;5053249;28;20045;-76
2022/06/30 11:52:09;;;;;;;8.50;7.28;;;28.70;99.90;;;;;;5053459;28;20048;-76
2022/06/30 11:54:35;;;;;;;12.20;8.60;;;28.70;99.90;;;;;;5053162;28;20399;-77
2022/06/30 11:57:01;;;;;;;5.65;5.03;;;28.60;99.90;;;;;;5053190;28;20052;-86
2022/06/30 11:59:27;;;;;;;10.40;5.40;;;28.60;99.90;;;;;;5069269;28;20045;-85
2022/06/30 12:02:19;;;;;;;9.38;6.60;;;28.70;99.90;;;;;;5052770;28;20052;-85
2022/06/30 12:04:51;;;;;;;13.35;8.00;;;28.80;99.90;;;;;;5051263;28;20088;-86
2022/06/30 12:07:18;;;;;;;10.55;6.97;;;28.80;99.90;;;;;;5052906;28;20045;-86
2022/06/30 12:09:45;;;;;;;11.45;7.40;;;28.80;99.90;;;;;;5052886;28;20095;-85
2022/06/30 12:12:18;;;;;;;11.75;7.88;;;28.90;99.90;;;;;;5052699;28;20052;-85
2022/06/30 12:14:45;;;;;;;12.05;8.45;;;28.90;99.90;;;;;;5052495;28;20057;-85
2022/06/30 12:17:12;;;;;;;9.07;7.80;;;28.80;99.90;;;;;;5036216;28;20049;-86
2022/06/30 12:19:41;;;;;;;9.10;7.55;;;28.90;99.90;;;;;;5053012;28;20049;-88
2022/06/30 12:22:11;;;;;;;11.27;8.00;;;28.90;99.90;;;;;;5052808;28;20472;-89
2022/06/30 12:24:39;;;;;;;10.98;8.20;;;28.40;99.90;;;;;;5054340;28;20095;-76
2022/06/30 12:27:05;;;;;;;14.75;8.15;;;28.00;99.90;;;;;;5052884;28;20040;-86
2022/06/30 12:29:31;;;;;;;13.68;7.82;;;28.00;99.90;;;;;;5052704;28;20127;-87
2022/06/30 12:32:02;;;;;;;11.70;7.65;;;27.70;99.90;;;;;;5053046;28;20088;-85
2022/06/30 12:34:28;;;;;;;11.07;7.97;;;27.80;99.90;;;;;;5052778;28;20098;-86
2022/06/30 12:37:03;;;;;;;12.50;7.97;;;27.70;99.90;;;;;;5036078;28;20169;-85
2022/06/30 12:39:30;;;;;;;11.90;8.05;;;27.70;99.90;;;;;;5052077;28;20045;-87
2022/06/30 12:42:14;;;;;;;9.85;7.32;;;27.70;99.90;;;;;;5052850;28;20053;-86
2022/06/30 12:44:40;;;;;;;10.60;7.55;;;27.60;99.90;;;;;;5056629;28;20048;-85
2022/06/30 12:47:10;;;;;;;10.80;7.30;;;27.70;99.90;;;;;;5058911;28;20037;-75
2022/06/30 12:49:38;;;;;;;12.57;7.25;;;27.90;99.90;;;;;;5059094;28;20110;-79
2022/06/30 12:52:20;;;;;;;11.98;7.25;;;28.10;99.90;;;;;;5059156;28;20224;-85
2022/06/30 12:54:55;;;;;;;8.70;7.50;;;28.10;99.90;;;;;;5059180;28;20513;-80
2022/06/30 12:57:22;;;;;;;10.75;8.05;;;28.40;99.90;;;;;;5059057;28;20049;-80
2022/06/30 12:59:54;;;;;;;10.68;6.90;;;28.40;99.90;;;;;;5042093;28;20067;-80
2022/06/30 13:02:21;;;;;;;8.80;7.18;;;28.30;99.90;;;;;;5059083;28;20055;-79
2022/06/30 13:04:52;;;;;;;11.75;7.47;;;28.40;99.90;;;;;;5042301;28;20053;-79
2022/06/30 13:07:21;;;;;;;16.40;8.57;;;28.80;99.90;;;;;;5059459;28;20127;-79